createdAt,value
2023-03-05T00:01:22.960Z,1010.52
2023-03-05T00:04:30.996Z,1010.44
2023-03-05T00:07:38.525Z,1010.46
2023-03-05T00:10:46.367Z,1010.40
2023-03-05T00:13:54.126Z,1010.37
2023-03-05T00:17:01.858Z,1010.43
2023-03-05T00:20:09.871Z,1010.36
2023-03-05T00:23:17.247Z,1010.36
2023-03-05T00:26:25.398Z,1010.30
2023-03-05T00:29:33.305Z,1010.33
2023-03-05T00:32:40.548Z,1010.32
2023-03-05T00:35:48.678Z,1010.32
2023-03-05T00:38:56.959Z,1010.27
2023-03-05T00:42:04.256Z,1010.22
2023-03-05T00:45:12.131Z,1010.09
2023-03-05T00:48:19.792Z,1010.20
2023-03-05T00:51:27.465Z,1010.16
2023-03-05T00:54:35.204Z,1010.03
2023-03-05T00:57:43.061Z,1009.96
2023-03-05T01:00:50.920Z,1009.96
2023-03-05T01:03:58.609Z,1009.93
2023-03-05T01:06:59.538Z,1009.88
2023-03-05T01:10:06.959Z,1010.00
2023-03-05T01:13:14.658Z,1009.90
2023-03-05T01:16:22.129Z,1009.87
2023-03-05T01:19:29.565Z,1009.79
2023-03-05T01:22:36.890Z,1009.77
2023-03-05T01:25:44.444Z,1009.70
2023-03-05T01:28:51.451Z,1009.62
2023-03-05T01:31:58.522Z,1009.51
2023-03-05T01:35:05.782Z,1009.47
2023-03-05T01:38:13.271Z,1009.46
2023-03-05T01:41:20.358Z,1009.40
2023-03-05T01:44:28.168Z,1009.36
2023-03-05T01:47:35.278Z,1009.23
2023-03-05T01:50:43.117Z,1009.27
2023-03-05T01:53:50.888Z,1009.28
2023-03-05T01:56:57.819Z,1009.30
2023-03-05T02:00:05.447Z,1009.21
2023-03-05T02:03:13.555Z,1009.21
2023-03-05T02:06:20.597Z,1009.20
2023-03-05T02:09:28.312Z,1009.13
2023-03-05T02:12:35.778Z,1009.16
2023-03-05T02:15:43.190Z,1009.11
2023-03-05T02:18:50.845Z,1009.05
2023-03-05T02:21:58.297Z,1009.05
2023-03-05T02:25:05.742Z,1008.92
2023-03-05T02:28:13.432Z,1008.97
2023-03-05T02:31:20.905Z,1008.89
2023-03-05T02:34:28.552Z,1008.90
2023-03-05T02:37:36.110Z,1008.91
2023-03-05T02:40:43.784Z,1008.89
2023-03-05T02:43:51.149Z,1008.82
2023-03-05T02:46:58.609Z,1008.85
2023-03-05T02:50:06.208Z,1008.83
2023-03-05T02:53:13.601Z,1008.78
2023-03-05T02:56:20.963Z,1008.83
2023-03-05T02:59:28.952Z,1008.78
2023-03-05T03:02:36.331Z,1008.66
2023-03-05T03:05:43.794Z,1008.62
2023-03-05T03:08:51.577Z,1008.58
2023-03-05T03:11:58.765Z,1008.60
2023-03-05T03:15:06.653Z,1008.56
2023-03-05T03:18:14.262Z,1008.51
2023-03-05T03:21:21.208Z,1008.46
2023-03-05T03:24:28.687Z,1008.43
2023-03-05T03:27:36.309Z,1008.40
2023-03-05T03:30:43.451Z,1008.33
2023-03-05T03:33:51.314Z,1008.38
2023-03-05T03:36:58.612Z,1008.30
2023-03-05T03:40:06.087Z,1008.28
2023-03-05T03:43:13.514Z,1008.23
2023-03-05T03:46:21.035Z,1008.18
2023-03-05T03:49:28.189Z,1008.17
2023-03-05T03:52:35.918Z,1008.17
2023-03-05T03:55:43.400Z,1008.07
2023-03-05T03:58:51.345Z,1008.10
2023-03-05T04:01:58.502Z,1008.05
2023-03-05T04:05:05.829Z,1007.98
2023-03-05T04:08:13.453Z,1007.92
2023-03-05T04:11:20.591Z,1007.95
2023-03-05T04:14:28.350Z,1007.85
2023-03-05T04:17:35.734Z,1007.81
2023-03-05T04:20:43.165Z,1007.87
2023-03-05T04:23:50.732Z,1007.76
2023-03-05T04:26:58.234Z,1007.78
2023-03-05T04:30:05.690Z,1007.74
2023-03-05T04:33:13.499Z,1007.70
2023-03-05T04:36:20.895Z,1007.63
2023-03-05T04:39:28.364Z,1007.58
2023-03-05T04:42:35.580Z,1007.61
2023-03-05T04:45:43.249Z,1007.61
2023-03-05T04:48:50.504Z,1007.51
2023-03-05T04:51:57.705Z,1007.53
2023-03-05T04:55:05.208Z,1007.48
2023-03-05T04:58:12.441Z,1007.53
2023-03-05T05:01:19.702Z,1007.54
2023-03-05T05:04:27.210Z,1007.51
2023-03-05T05:07:34.456Z,1007.40
2023-03-05T05:10:41.791Z,1007.47
2023-03-05T05:13:49.350Z,1007.39
2023-03-05T05:16:56.331Z,1007.37
2023-03-05T05:20:03.868Z,1007.39
2023-03-05T05:23:11.563Z,1007.38
2023-03-05T05:26:18.520Z,1007.39
2023-03-05T05:29:26.202Z,1007.36
2023-03-05T05:32:33.770Z,1007.22
2023-03-05T05:35:40.780Z,1007.22
2023-03-05T05:38:48.612Z,1007.32
2023-03-05T05:41:55.956Z,1007.32
2023-03-05T05:45:03.426Z,1007.32
2023-03-05T05:48:11.133Z,1007.34
2023-03-05T05:51:18.684Z,1007.29
2023-03-05T05:54:26.088Z,1007.28
2023-03-05T05:57:33.755Z,1007.20
2023-03-05T06:00:43.662Z,1007.23
2023-03-05T06:03:51.084Z,1007.29
2023-03-05T06:06:59.014Z,1007.25
2023-03-05T06:10:06.387Z,1007.29
2023-03-05T06:13:13.644Z,1007.25
2023-03-05T06:16:21.118Z,1007.30
2023-03-05T06:19:28.697Z,1007.32
2023-03-05T06:22:35.941Z,1007.28
2023-03-05T06:25:43.091Z,1007.32
2023-03-05T06:28:50.388Z,1007.24
2023-03-05T06:31:58.156Z,1007.25
2023-03-05T06:35:05.386Z,1007.20
2023-03-05T06:38:12.985Z,1007.23
2023-03-05T06:41:19.870Z,1007.14
2023-03-05T06:44:27.439Z,1007.19
2023-03-05T06:47:35.199Z,1007.16
2023-03-05T06:50:42.231Z,1007.04
2023-03-05T06:53:49.844Z,1006.96
2023-03-05T06:56:57.678Z,1007.03
2023-03-05T07:00:04.546Z,1007.00
2023-03-05T07:03:11.928Z,1007.00
2023-03-05T07:06:19.211Z,1007.03
2023-03-05T07:09:26.428Z,1007.06
2023-03-05T07:12:33.911Z,1007.00
2023-03-05T07:15:41.207Z,1007.01
2023-03-05T07:18:48.446Z,1006.99
2023-03-05T07:21:55.741Z,1006.99
2023-03-05T07:25:03.054Z,1007.01
2023-03-05T07:28:10.337Z,1006.87
2023-03-05T07:31:17.797Z,1006.87
2023-03-05T07:34:27.199Z,1006.91
2023-03-05T07:37:34.745Z,1006.84
2023-03-05T07:40:41.736Z,1006.88
2023-03-05T07:43:49.404Z,1006.79
2023-03-05T07:46:56.627Z,1006.82
2023-03-05T07:50:03.525Z,1006.86
2023-03-05T07:53:10.815Z,1006.81
2023-03-05T07:56:18.045Z,1006.72
2023-03-05T07:59:25.296Z,1006.72
2023-03-05T08:02:32.951Z,1006.78
2023-03-05T08:05:39.857Z,1006.71
2023-03-05T08:08:47.676Z,1006.74
2023-03-05T08:11:55.115Z,1006.72
2023-03-05T08:15:02.037Z,1006.68
2023-03-05T08:18:09.288Z,1006.74
2023-03-05T08:21:16.868Z,1006.67
2023-03-05T08:24:24.117Z,1006.69
2023-03-05T08:27:31.450Z,1006.58
2023-03-05T08:30:39.012Z,1006.63
2023-03-05T08:33:46.255Z,1006.56
2023-03-05T08:36:53.738Z,1006.58
2023-03-05T08:40:01.233Z,1006.63
2023-03-05T08:43:08.696Z,1006.63
2023-03-05T08:46:16.223Z,1006.52
2023-03-05T08:49:23.785Z,1006.64
2023-03-05T08:52:30.975Z,1006.54
2023-03-05T08:55:38.321Z,1006.60
2023-03-05T08:58:45.758Z,1006.50
2023-03-05T09:01:53.487Z,1006.43
2023-03-05T09:05:00.716Z,1006.42
2023-03-05T09:08:08.018Z,1006.41
2023-03-05T09:11:15.706Z,1006.40
2023-03-05T09:14:22.757Z,1006.33
2023-03-05T09:17:30.643Z,1006.24
2023-03-05T09:20:38.231Z,1006.28
2023-03-05T09:23:45.251Z,1006.32
2023-03-05T09:26:52.887Z,1006.25
2023-03-05T09:30:00.727Z,1006.18
2023-03-05T09:33:07.577Z,1006.21
2023-03-05T09:36:15.242Z,1006.17
2023-03-05T09:39:22.707Z,1006.11
2023-03-05T09:42:29.939Z,1006.13
2023-03-05T09:45:37.292Z,1006.22
2023-03-05T09:48:44.633Z,1006.17
2023-03-05T09:51:51.919Z,1006.12
2023-03-05T09:54:58.913Z,1006.00
2023-03-05T09:58:06.475Z,1006.00
2023-03-05T10:01:13.505Z,1006.00
2023-03-05T10:04:20.779Z,1005.99
2023-03-05T10:07:28.524Z,1006.11
2023-03-05T10:10:35.605Z,1006.03
2023-03-05T10:13:43.575Z,1005.99
2023-03-05T10:16:51.481Z,1005.98
2023-03-05T10:19:58.320Z,1005.91
2023-03-05T10:23:06.081Z,1005.91
2023-03-05T10:26:13.778Z,1005.82
2023-03-05T10:29:20.748Z,1005.87
2023-03-05T10:32:28.517Z,1006.04
2023-03-05T10:35:36.430Z,1005.86
2023-03-05T10:38:45.132Z,1005.93
2023-03-05T10:41:52.635Z,1005.84
2023-03-05T10:45:00.004Z,1005.82
2023-03-05T10:48:07.460Z,1005.80
2023-03-05T10:51:14.847Z,1005.77
2023-03-05T10:54:22.230Z,1005.85
2023-03-05T10:57:29.524Z,1005.80
2023-03-05T11:00:36.705Z,1005.80
2023-03-05T11:03:44.620Z,1005.87
2023-03-05T11:06:51.927Z,1005.72
2023-03-05T11:09:59.415Z,1005.68
2023-03-05T11:13:06.823Z,1005.55
2023-03-05T11:16:13.870Z,1005.58
2023-03-05T11:19:21.800Z,1005.53
2023-03-05T11:22:29.617Z,1005.48
2023-03-05T11:25:36.652Z,1005.51
2023-03-05T11:28:44.571Z,1005.41
2023-03-05T11:31:52.647Z,1005.36
2023-03-05T11:34:59.584Z,1005.28
2023-03-05T11:38:07.326Z,1005.31
2023-03-05T11:41:14.836Z,1005.26
2023-03-05T11:44:22.271Z,1005.10
2023-03-05T11:47:29.784Z,1005.15
2023-03-05T11:50:37.205Z,1005.09
2023-03-05T11:53:45.203Z,1005.14
2023-03-05T11:56:52.621Z,1005.13
2023-03-05T11:59:59.815Z,1005.08
2023-03-05T12:03:03.005Z,1004.99
2023-03-05T12:06:10.288Z,1004.96
2023-03-05T12:09:18.009Z,1004.88
2023-03-05T12:12:25.362Z,1004.83
2023-03-05T12:15:32.680Z,1004.78
2023-03-05T12:18:40.841Z,1004.78
2023-03-05T12:21:48.361Z,1004.70
2023-03-05T12:24:55.441Z,1004.63
2023-03-05T12:28:04.362Z,1004.62
2023-03-05T12:31:11.343Z,1004.72
2023-03-05T12:34:19.154Z,1004.54
2023-03-05T12:37:26.624Z,1004.50
2023-03-05T12:40:33.550Z,1004.39
2023-03-05T12:43:41.459Z,1004.40
2023-03-05T12:46:49.021Z,1004.38
2023-03-05T12:49:55.867Z,1004.36
2023-03-05T12:53:03.528Z,1004.29
2023-03-05T12:56:12.636Z,1004.27
2023-03-05T12:59:19.662Z,1004.29
2023-03-05T13:02:27.218Z,1004.22
2023-03-05T13:05:34.318Z,1004.16
2023-03-05T13:08:41.635Z,1004.05
2023-03-05T13:11:49.067Z,1004.09
2023-03-05T13:14:56.399Z,1004.18
2023-03-05T13:18:03.659Z,1004.10
2023-03-05T13:21:11.065Z,1004.00
2023-03-05T13:24:18.729Z,1003.97
2023-03-05T13:27:25.722Z,1003.97
2023-03-05T13:30:34.726Z,1003.91
2023-03-05T13:33:42.495Z,1003.88
2023-03-05T13:36:49.403Z,1003.90
2023-03-05T13:39:57.184Z,1003.86
2023-03-05T13:43:04.766Z,1003.84
2023-03-05T13:46:11.774Z,1003.72
2023-03-05T13:49:20.193Z,1003.70
2023-03-05T13:52:27.471Z,1003.70
2023-03-05T13:55:34.884Z,1003.63
2023-03-05T13:58:42.587Z,1003.63
2023-03-05T14:01:49.905Z,1003.51
2023-03-05T14:04:57.283Z,1003.53
2023-03-05T14:08:04.633Z,1003.54
2023-03-05T14:11:12.491Z,1003.50
2023-03-05T14:14:19.967Z,1003.45
2023-03-05T14:17:27.470Z,1003.51
2023-03-05T14:20:35.115Z,1003.46
2023-03-05T14:23:42.454Z,1003.30
2023-03-05T14:26:49.752Z,1003.31
2023-03-05T14:29:57.581Z,1003.29
2023-03-05T14:33:04.857Z,1003.25
2023-03-05T14:36:11.965Z,1003.12
2023-03-05T14:39:19.722Z,1003.18
2023-03-05T14:42:26.734Z,1003.09
2023-03-05T14:45:34.328Z,1003.07
2023-03-05T14:48:41.969Z,1003.02
2023-03-05T14:51:49.031Z,1002.89
2023-03-05T14:54:56.566Z,1002.95
2023-03-05T14:58:04.462Z,1002.82
2023-03-05T15:01:11.518Z,1002.78
2023-03-05T15:04:18.824Z,1002.76
2023-03-05T15:07:25.808Z,1002.69
2023-03-05T15:10:33.472Z,1002.63
2023-03-05T15:13:41.284Z,1002.67
2023-03-05T15:16:48.331Z,1002.62
2023-03-05T15:19:55.871Z,1002.58
2023-03-05T15:23:03.093Z,1002.64
2023-03-05T15:26:10.353Z,1002.58
2023-03-05T15:29:18.044Z,1002.60
2023-03-05T15:32:25.348Z,1002.69
2023-03-05T15:35:32.567Z,1002.54
2023-03-05T15:38:39.685Z,1002.54
2023-03-05T15:41:47.259Z,1002.50
2023-03-05T15:44:54.644Z,1002.49
2023-03-05T15:48:02.118Z,1002.45
2023-03-05T15:51:09.660Z,1002.38
2023-03-05T15:54:17.007Z,1002.35
2023-03-05T15:57:24.365Z,1002.31
2023-03-05T16:00:32.040Z,1002.22
2023-03-05T16:03:39.007Z,1002.24
2023-03-05T16:06:46.807Z,1002.20
2023-03-05T16:09:54.578Z,1002.15
2023-03-05T16:13:01.600Z,1002.16
2023-03-05T16:16:08.888Z,1002.15
2023-03-05T16:19:16.424Z,1002.11
2023-03-05T16:22:23.266Z,1002.07
2023-03-05T16:25:31.111Z,1002.13
2023-03-05T16:28:38.718Z,1002.06
2023-03-05T16:31:46.780Z,1002.07
2023-03-05T16:34:54.328Z,1002.04
2023-03-05T16:38:01.485Z,1002.01
2023-03-05T16:41:09.074Z,1001.97
2023-03-05T16:44:16.772Z,1001.87
2023-03-05T16:47:24.091Z,1001.88
2023-03-05T16:50:31.392Z,1001.85
2023-03-05T16:53:39.506Z,1001.91
2023-03-05T16:56:46.991Z,1001.92
2023-03-05T16:59:54.691Z,1001.83
2023-03-05T17:03:01.898Z,1001.90
2023-03-05T17:06:09.866Z,1001.84
2023-03-05T17:09:17.477Z,1001.89
2023-03-05T17:12:24.779Z,1001.91
2023-03-05T17:15:32.336Z,1001.91
2023-03-05T17:18:39.326Z,1001.84
2023-03-05T17:21:46.680Z,1001.85
2023-03-05T17:24:54.168Z,1001.85
2023-03-05T17:28:01.587Z,1001.86
2023-03-05T17:31:09.218Z,1001.81
2023-03-05T17:34:18.349Z,1001.83
2023-03-05T17:37:16.882Z,1001.80
2023-03-05T17:40:25.220Z,1001.80
2023-03-05T17:43:32.500Z,1001.70
2023-03-05T17:46:39.633Z,1001.78
2023-03-05T17:49:47.313Z,1001.84
2023-03-05T17:52:55.128Z,1001.78
2023-03-05T17:56:02.437Z,1001.86
2023-03-05T17:59:09.933Z,1001.85
2023-03-05T18:02:17.230Z,1001.80
2023-03-05T18:05:24.883Z,1001.78
2023-03-05T18:08:32.486Z,1001.76
2023-03-05T18:11:40.084Z,1001.68
2023-03-05T18:14:47.672Z,1001.69
2023-03-05T18:17:54.800Z,1001.71
2023-03-05T18:21:02.687Z,1001.66
2023-03-05T18:24:10.764Z,1001.70
2023-03-05T18:27:17.773Z,1001.65
2023-03-05T18:30:25.788Z,1001.69
2023-03-05T18:33:33.285Z,1001.63
2023-03-05T18:36:40.364Z,1001.57
2023-03-05T18:39:48.102Z,1001.52
2023-03-05T18:42:55.455Z,1001.48
2023-03-05T18:46:03.227Z,1001.44
2023-03-05T18:49:10.805Z,1001.34
2023-03-05T18:52:18.331Z,1001.49
2023-03-05T18:55:25.554Z,1001.45
2023-03-05T18:58:33.448Z,1001.35
2023-03-05T19:01:40.919Z,1001.32
2023-03-05T19:04:48.702Z,1001.33
2023-03-05T19:07:56.577Z,1001.29
2023-03-05T19:11:03.783Z,1001.27
2023-03-05T19:14:11.508Z,1001.25
2023-03-05T19:17:19.126Z,1001.29
2023-03-05T19:20:26.937Z,1001.22
2023-03-05T19:23:34.649Z,1001.25
2023-03-05T19:26:42.278Z,1001.22
2023-03-05T19:29:50.192Z,1001.17
2023-03-05T19:32:57.726Z,1001.24
2023-03-05T19:36:04.904Z,1001.18
2023-03-05T19:39:12.873Z,1001.11
2023-03-05T19:42:20.377Z,1001.08
2023-03-05T19:45:28.080Z,1001.06
2023-03-05T19:48:36.192Z,1001.11
2023-03-05T19:51:44.118Z,1001.03
2023-03-05T19:54:51.510Z,1001.00
2023-03-05T19:57:59.670Z,1000.90
2023-03-05T20:01:07.026Z,1000.91
2023-03-05T20:04:14.442Z,1000.87
2023-03-05T20:07:21.953Z,1000.88
2023-03-05T20:10:29.899Z,1000.87
2023-03-05T20:13:37.414Z,1000.84
2023-03-05T20:16:44.889Z,1000.78
2023-03-05T20:19:52.516Z,1000.75
2023-03-05T20:22:59.992Z,1000.79
2023-03-05T20:26:07.620Z,1000.78
2023-03-05T20:29:17.881Z,1000.68
2023-03-05T20:32:15.397Z,1000.68
2023-03-05T20:35:23.059Z,1000.66
2023-03-05T20:38:30.793Z,1000.65
2023-03-05T20:41:37.995Z,1000.57
2023-03-05T20:44:46.024Z,1000.57
2023-03-05T20:47:53.575Z,1000.63
2023-03-05T20:51:00.766Z,1000.50
2023-03-05T20:54:08.468Z,1000.51
2023-03-05T20:57:16.320Z,1000.51
2023-03-05T21:00:23.589Z,1000.46
2023-03-05T21:03:30.889Z,1000.45
2023-03-05T21:06:39.030Z,1000.42
2023-03-05T21:09:46.632Z,1000.43
2023-03-05T21:12:54.720Z,1000.35
2023-03-05T21:16:02.325Z,1000.36
2023-03-05T21:19:10.174Z,1000.37
2023-03-05T21:22:18.054Z,1000.27
2023-03-05T21:25:25.905Z,1000.20
2023-03-05T21:28:33.654Z,1000.23
2023-03-05T21:31:41.076Z,1000.18
2023-03-05T21:34:48.210Z,1000.15
2023-03-05T21:37:56.326Z,1000.14
2023-03-05T21:41:03.573Z,1000.11
2023-03-05T21:44:11.897Z,1000.07
2023-03-05T21:47:19.698Z,1000.02
2023-03-05T21:50:26.641Z,1000.00
2023-03-05T21:53:34.583Z,1000.02
2023-03-05T21:56:42.283Z,1000.00
2023-03-05T21:59:49.328Z,999.85
2023-03-05T22:02:56.746Z,999.92
2023-03-05T22:06:04.311Z,999.88
2023-03-05T22:09:11.900Z,999.85
2023-03-05T22:12:19.311Z,999.75
2023-03-05T22:15:26.652Z,999.73
2023-03-05T22:18:34.041Z,999.69
2023-03-05T22:21:41.817Z,999.63
2023-03-05T22:24:49.341Z,999.53
2023-03-05T22:27:56.629Z,999.59
2023-03-05T22:31:04.055Z,999.53
2023-03-05T22:34:11.732Z,999.44
2023-03-05T22:37:19.207Z,999.42
2023-03-05T22:40:26.623Z,999.42
2023-03-05T22:43:34.392Z,999.39
2023-03-05T22:46:41.821Z,999.40
2023-03-05T22:49:49.194Z,999.33
2023-03-05T22:52:56.969Z,999.33
2023-03-05T22:56:04.059Z,999.30
2023-03-05T22:59:11.386Z,999.24
2023-03-05T23:02:19.116Z,999.20
2023-03-05T23:05:26.203Z,999.13
2023-03-05T23:08:34.163Z,999.06
2023-03-05T23:11:41.678Z,999.11
2023-03-05T23:14:48.944Z,999.13
2023-03-05T23:17:56.365Z,999.06
2023-03-05T23:21:03.986Z,999.07
2023-03-05T23:24:11.616Z,999.06
2023-03-05T23:27:19.111Z,999.01
2023-03-05T23:30:26.706Z,999.04
2023-03-05T23:33:34.543Z,998.99
2023-03-05T23:36:41.879Z,998.95
2023-03-05T23:39:49.647Z,998.94
2023-03-05T23:42:57.443Z,998.97
2023-03-05T23:46:04.975Z,998.94
2023-03-05T23:49:12.412Z,998.95
2023-03-05T23:52:20.608Z,998.90
2023-03-05T23:55:27.928Z,998.88
2023-03-05T23:58:35.851Z,998.83
